ADDS TAF Board (Experimental) INFO Settings
IDs: Format: Expanded Condensed

KDCA - Washington/National, VA, US

Issued at 2340 UTC 28 Jun 2016
Updated at: 0150 UTC 29 Jun 2016
Time0142Z 29/02Z 29/03Z 29/04Z 29/05Z 29/06Z 29/07Z 29/08Z 29/09Z 29/10Z 29/11Z 29/12Z 29/13Z 29/14Z
Type OBS PRVL PRVL PRVL PRVL PRVL PRVL PRVL PRVL PRVL PRVL PRVL PRVL PRVL
VIS 4 >6 >6 >6 >6 >6 >6 >6 >6 >6 >6 >6 >6 >6
CIG 30 50 50 50 40 40 40 40 -- -- -- -- -- --
Cover OVC BKN BKN BKN BKN BKN BKN BKN SCT SCT SCT SCT SCT SCT
FltCat MVFR VFR VFR VFR VFR VFR VFR VFR VFR VFR VFR VFR VFR VFR
WX -TSRA BR -- -- -- -- -- -- -- -- -- -- -- -- --
WDir 160 240 240 240 300 300 300 300 340 340 340 340 340 330
WSpd 10 4 4 4 4 4 4 4 5 5 5 5 5 11
WGst -- -- -- -- -- -- -- -- -- -- -- -- -- --
R01/19
XWnd -3 4 4 4 3 3 3 3 1 1 1 1 1 5
HWnd -10 -2 -2 -2 2 2 2 2 5 5 5 5 5 10
R04/22
XWnd -7 2 2 2 4 4 4 4 4 4 4 4 4 9
HWnd -7 -3 -3 -3 0 0 0 0 3 3 3 3 3 6
R15/33
XWnd -3 -4 -4 -4 -2 -2 -2 -2 1 1 1 1 1 1
HWnd 10 -0 -0 -0 -4 -4 -4 -4 -5 -5 -5 -5 -5 -11

NOTE: TEMPO conditions in [brackets]. Keep in mind TEMPO conditions might be better (lower impact) than prevailing conditions.

Raw TAF
KDCA 282340Z 2900/2924 18007KT P6SM VCTS BKN035CB
  FM290100 24004KT P6SM BKN050
  FM290500 30004KT P6SM BKN040
  FM290900 34005KT P6SM SCT045
  FM291400 33011KT P6SM SCT050


Raw METAR
KDCA 290142Z 16010KT 4SM R01/5500VP6000FT -TSRA BR BKN030CB BKN035 OVC120 22/20 A2991 RMK AO2 WSHFT 0127 TSB07 FRQ LTGIC E-SW TS E-SW MOV SE P0075 T02220200
KDCA 290140Z 15012KT 3SM R01/5500VP6000FT TSRA BR BKN030CB BKN035 OVC120 22/20 A2991 RMK AO2 TSB07 FRQ LTGIC E-SW TS E-SW MOV SE P0075 T02170200
KDCA 290133Z 18016KT 1SM R01/3500VP6000FT +TSRA BR BKN023CB OVC033 22/20 A2990 RMK AO2 TSB07 PRESFR FRQ LTGIC ALQDS TS ALQDS MOV SE P0066 T02170200
KDCA 290127Z 17010KT 3/4SM R01/3500VP6000FT +TSRA BR BKN016CB BKN033 OVC041 22/20 A2991 RMK AO2 TSB07 FRQ LTGIC ALQDS TS ALQDS MOV SE P0041 T02220200
KDCA 290124Z 20005KT 3/4SM R01/3500VP6000FT +TSRA BR SCT018CB BKN033 OVC041 22/20 A2992 RMK AO2 TSB07 FRQ LTGIC ALQDS TS ALQDS MOV SE P0029 T02220200
KDCA 290119Z COR 30006KT 1 3/4SM R01/5000VP6000FT +TSRA SCT020CB BKN032 OVC042 22/19 A2992 RMK AO2 TSB07 FRQ LTGIC ALQDS TS ALQDS MOV SE P0007 T02220194
KDCA 290116Z 31007KT 4SM +TSRA BKN032CB OVC042 22/19 A2992 RMK AO2 TSB07 FRQ LTGIC ALQDS TS ALQDS MOV SE P0002 T02220194
KDCA 290107Z 34013KT 10SM -TSRA SCT034CB BKN042 BKN070 BKN200 23/20 A2992 RMK AO2 TSB07 PRESRR OCNL LTGIC W-NE TS W-NE MOV SE P0000 T02330200
KDCA 290052Z 28006KT 10SM -RA SCT035CB BKN090 BKN110 BKN250 23/20 A2989 RMK AO2 RAB50 SLP122 CB W-N MOV SE P0000 T02280200
KDCA 282352Z 08006KT 10SM SCT033CB BKN085 BKN150 BKN200 23/20 A2985 RMK AO2 PK WND 07030/2314 WSHFT 2309 RAE25 TSE20 SLP106 CB VC SE-W MOV SE P0003 60003 T02330200 10306 20228 58001
KDCA 282325Z 07016KT 10SM SCT033CB SCT055 BKN090 23/20 A2987 RMK AO2 PK WND 07030/2314 WSHFT 2309 RAE25 TSE20 CB SE-W MOV SE CB DSNT NW-NE MOV SE P0003 T02330200
KDCA 282321Z 07017G30KT 10SM -RA SCT033CB BKN080 OVC100 24/21 A2987 RMK AO2 PK WND 07030/2314 TSE20 CB E-OHD-W MOV SE P0003 T02390206
KDCA 282252Z 17006KT 4SM TSRA FEW060CB SCT095 BKN110 BKN200 28/23 A2986 RMK AO2 RAB31 TSB34 SLP111 OCNL LTGIC VC SW AND NW-NE TS SW AND NW-NE MOV SE P0000 T02780233
KDCA 282234Z COR 19010KT 10SM -TSRA SCT060CB SCT090 BKN150 BKN200 28/23 A2985 RMK AO2 RAB31 TSB34 OCNL LTGIC VC SW-N TS SW-N MOV SE P0000 T02830228

METAR Board
Radar Display
Forecast Discussion

TAF Board Legend

Potential Impact
Threat None Slight Moderate High
Visibility (sm) ≥5.1 5.1>X≥3 3>X≥1 <1
Ceiling (100 ft) ≥30.1 30.1>X≥10 10>X≥5 <5
Wind Speed (kt) <10 10≤X<20 20≤X<30 ≥30
Wind Gust (kt) <15 15≤X<25 25≤X<35 ≥35
Weather No Wx Reported VCTS,-TS,-FZRA,SN TS,FZRA +TS,+FZRA,+SN